Airfield :
LOGIN :

Register | Disclaimer

   EN    FR    IT 

 










Legend :    VFR   Marginal VFR   IFR   Intensive IFR   Very Intensive IFR
Visi :
Ceiling :
>= 8 km
>= 3000ft
5 to 8 km
1000 to 3000 ft
1500m to 5 km
500 to 1000 ft
800 to 1500m
200 to 500 ft
< 800m
< 200 ft
Symbols :   Thunderstorms  Fog  Heavy snow  Heavy precipitations  Wind > 20 kt
SIGMETs :     Misc.  Thunderstorms  Icing  Turbulence  Mountain Waves  Volcanic Ashes







- Airport Elevation : 17 ft
- IATA code : MPL
- Download approach charts


LFMT - Montpellier Méditerranée

CURRENT METAR :
  • 260900Z AUTO 02014KT CAVOK 24/10 Q1014 TEMPO 34015G25KT

EXPIRED METARs :
  • 260830Z AUTO 36012KT 330V030 CAVOK 24/10 Q1014 TEMPO 34015G25KT
  • 260800Z AUTO 34011KT CAVOK 23/10 Q1014 NOSIG
  • 260730Z AUTO 35009KT 9999 ////// 22/11 Q1014
  • 260700Z AUTO 00000KT CAVOK 21/11 Q1015 BECMG 34013KT
  • 260630Z AUTO 29008KT CAVOK 20/12 Q1014 NOSIG

TAF TAF LFMT
Valid from the 26 at 09:00 until the 27 at 09:00 UTC


260800Z 2609/2709 34012KT CAVOK
TEMPO 2609/2622 34015G25KT
PROB30
TEMPO 2612/2618 24012KT
ATIS : +33 4 67 13 11 70
No reported NOTAMs for that airfield.
1 SIGMET reported for the Marseille FIR (LFMM) :
 
Severe turbulence
LFMM SIGMET 2 VALID 260700/261100 LFPW
LFMM MARSEILLE FIR/UIR SEV TURB FCST WI N3900 E00600 - N3900 E00430 - N4145 E00430 - N4630 E00600 - N4630 E00700 - N4415 E00700 - N3900 E00600 FL220/310 STNR NC=



MET'MAP, your aeronautical weather chart ! - Copyright ORBIFLY December 2007 - Disclaimer

ORBIFLY MET'MAP TEAM :

Programming & Development : Alexandra Zaïnal
Concept & Development : Baudouin d'Aumeries
Co-Development & Prog : Marc-Olivier Méhu
Technical & hardware support : Manuel Goepfert

Contact : metmap@orbifly.com




SOURCES & CREDITS :

   NOAA